Time;durP1;ratioP1;P1;durP2;ratioP2;P2;SDS_P1;SDS_P2;PMS_P1;PMS_P2;Temp;Humidity;BMP_temperature;BMP_pressure;BME280_temperature;BME280_humidity;BME280_pressure;Samples;Min_cycle;Max_cycle;Signal;HPM_P1;HPM_P2
2022/10/19 00:01:17;;;;;;;;;16.50;11.00;;;;;22.57;67.35;101517.31;5062308;28;45456;-55
2022/10/19 00:03:43;;;;;;;;;12.50;11.50;;;;;22.56;67.49;101507.59;5053745;28;46493;-54
2022/10/19 00:06:17;;;;;;;;;15.00;11.75;;;;;22.58;67.50;101503.09;5062587;28;45990;-55
2022/10/19 00:08:43;;;;;;;;;13.00;11.00;;;;;22.57;67.91;101504.03;5062954;28;45644;-55
2022/10/19 00:11:08;;;;;;;;;14.00;11.25;;;;;22.56;67.75;101498.75;5053636;28;45515;-55
2022/10/19 00:13:34;;;;;;;;;12.00;11.00;;;;;22.55;67.81;101503.19;5060302;28;52986;-55
2022/10/19 00:15:59;;;;;;;;;13.50;10.00;;;;;22.57;67.79;101503.16;5054023;27;46128;-54
2022/10/19 00:18:24;;;;;;;;;11.50;10.75;;;;;22.57;67.59;101503.16;5053826;28;59191;-55
2022/10/19 00:20:50;;;;;;;;;12.00;10.75;;;;;22.56;68.13;101506.72;5055698;28;63259;-54
2022/10/19 00:23:15;;;;;;;;;13.25;13.00;;;;;22.55;68.17;101492.56;5059972;28;67754;-55
2022/10/19 00:25:41;;;;;;;;;15.25;13.75;;;;;22.56;67.93;101496.97;5055194;28;71248;-55
2022/10/19 00:28:06;;;;;;;;;12.25;11.75;;;;;22.56;67.33;101488.09;5053294;28;65849;-55
2022/10/19 00:30:35;;;;;;;;;12.25;8.50;;;;;22.57;67.51;101482.75;5054035;28;65587;-54
2022/10/19 00:33:01;;;;;;;;;12.25;12.25;;;;;22.56;68.06;101486.31;5053855;28;48545;-53
2022/10/19 00:35:26;;;;;;;;;15.75;12.00;;;;;22.57;67.69;101487.19;5054324;28;70810;-55
2022/10/19 00:37:51;;;;;;;;;18.25;16.25;;;;;22.57;67.87;101481.88;5052539;28;61833;-54
2022/10/19 00:40:17;;;;;;;;;15.00;14.25;;;;;22.56;67.50;101465.03;5060454;28;45412;-54
2022/10/19 00:42:42;;;;;;;;;14.50;12.00;;;;;22.56;67.92;101458.84;5052418;28;60051;-55
2022/10/19 00:45:14;;;;;;;;;12.25;11.50;;;;;22.56;67.96;101456.19;5057380;28;67207;-55
2022/10/19 00:47:40;;;;;;;;;14.25;12.25;;;;;22.56;68.06;101454.41;5053561;28;46327;-55
2022/10/19 00:50:06;;;;;;;;;10.00;10.00;;;;;22.55;67.90;101454.44;5056109;28;45575;-53
2022/10/19 00:52:31;;;;;;;;;14.00;12.25;;;;;22.54;67.70;101453.56;5063397;28;45473;-55
2022/10/19 00:54:56;;;;;;;;;16.75;15.00;;;;;22.55;67.59;101449.13;5052421;28;73133;-56
2022/10/19 00:57:22;;;;;;;;;14.00;10.75;;;;;22.54;67.95;101442.06;5056233;28;65161;-55
2022/10/19 00:59:47;;;;;;;;;13.25;10.00;;;;;22.54;67.99;101439.41;5051875;28;45459;-56
2022/10/19 01:02:13;;;;;;;;;15.50;14.50;;;;;22.53;67.32;101446.50;5033233;28;45806;-54
2022/10/19 01:04:41;;;;;;;;;11.00;10.25;;;;;22.52;67.83;101444.78;5058471;28;45497;-55
2022/10/19 01:07:06;;;;;;;;;12.50;12.00;;;;;22.54;67.75;101444.72;5054870;28;45763;-52
2022/10/19 01:09:32;;;;;;;;;16.75;12.75;;;;;22.53;67.48;101451.84;5055489;28;45448;-55
2022/10/19 01:12:07;;;;;;;;;12.75;12.50;;;;;22.52;68.10;101438.59;5053155;28;50706;-55
2022/10/19 01:14:41;;;;;;;;;13.00;11.25;;;;;22.52;67.38;101442.09;5060593;28;47111;-55
2022/10/19 01:17:12;;;;;;;;;14.25;13.25;;;;;22.52;67.97;101438.59;5060311;28;45499;-54
2022/10/19 01:19:55;;;;;;;;;15.00;11.75;;;;;22.52;67.75;101447.44;5059609;28;45472;-55
2022/10/19 01:22:52;;;;;;;;;13.00;13.00;;;;;22.50;67.32;101443.94;5056122;28;45350;-53
2022/10/19 01:25:20;;;;;;;;;14.50;10.75;;;;;22.49;67.11;101439.53;5061888;28;45423;-54
2022/10/19 01:28:01;;;;;;;;;15.00;13.00;;;;;22.48;67.76;101448.41;5054790;28;45590;-55
2022/10/19 01:30:30;;;;;;;;;14.25;13.75;;;;;22.50;67.45;101446.63;5043227;28;45529;-54
2022/10/19 01:33:10;;;;;;;;;15.25;11.75;;;;;22.50;67.21;101430.66;5054284;28;45559;-55
2022/10/19 01:36:00;;;;;;;;;13.50;10.50;;;;;22.50;67.45;101435.97;5060746;28;45512;-55
2022/10/19 01:38:38;;;;;;;;;12.50;10.25;;;;;22.51;67.31;101427.06;5054178;28;45538;-55
2022/10/19 01:41:20;;;;;;;;;16.25;13.00;;;;;22.51;67.32;101432.38;5057834;28;45528;-55
2022/10/19 01:44:07;;;;;;;;;11.00;11.00;;;;;22.50;67.03;101428.00;5054407;28;45594;-54
2022/10/19 01:46:37;;;;;;;;;13.25;13.25;;;;;22.49;67.81;101430.66;5059710;28;46275;-54
2022/10/19 01:49:19;;;;;;;;;14.00;11.25;;;;;22.49;67.27;101431.53;5043884;28;45475;-55
2022/10/19 01:51:46;;;;;;;;;13.25;9.00;;;;;22.49;67.67;101428.00;5057518;28;45396;-56
2022/10/19 01:54:13;;;;;;;;;13.25;12.00;;;;;22.49;67.90;101422.69;5054583;28;45516;-53
2022/10/19 01:56:41;;;;;;;;;15.75;13.00;;;;;22.49;67.51;101412.91;5062551;28;46367;-54
2022/10/19 01:59:06;;;;;;;;;13.50;11.50;;;;;22.49;67.93;101412.91;5060235;28;45690;-54
2022/10/19 02:01:33;;;;;;;;;12.25;10.00;;;;;22.49;67.39;101410.25;5058651;28;45448;-54
2022/10/19 02:03:58;;;;;;;;;12.00;11.00;;;;;22.47;67.49;101412.09;5052193;28;46502;-55
2022/10/19 02:06:23;;;;;;;;;15.50;14.25;;;;;22.48;67.85;101403.19;5061826;28;63324;-54
2022/10/19 02:08:50;;;;;;;;;12.00;11.50;;;;;22.46;67.27;101394.41;5052375;28;54098;-56
2022/10/19 02:11:15;;;;;;;;;13.75;12.75;;;;;22.47;67.46;101398.81;5057208;28;45451;-53
2022/10/19 02:13:41;;;;;;;;;14.00;11.25;;;;;22.47;67.25;101395.28;5052986;28;45439;-54
2022/10/19 02:16:18;;;;;;;;;11.00;11.00;;;;;22.46;67.22;101389.06;5052403;27;45945;-56
2022/10/19 02:18:45;;;;;;;;;11.75;11.50;;;;;22.47;67.64;101389.94;5044206;28;45497;-52
2022/10/19 02:21:10;;;;;;;;;12.50;11.75;;;;;22.47;67.90;101388.16;5042613;28;45470;-55
2022/10/19 02:23:36;;;;;;;;;11.75;10.50;;;;;22.48;67.47;101387.25;5066773;28;45390;-54
2022/10/19 02:26:01;;;;;;;;;13.00;12.25;;;;;22.49;67.84;101373.00;5055729;28;60681;-53
2022/10/19 02:28:27;;;;;;;;;14.00;11.25;;;;;22.48;67.44;101365.09;5039981;28;70374;-54
2022/10/19 02:30:52;;;;;;;;;13.25;11.75;;;;;22.48;67.13;101360.63;5061373;28;58054;-55
2022/10/19 02:33:18;;;;;;;;;11.00;10.75;;;;;22.48;67.23;101357.09;5061767;28;45501;-54
2022/10/19 02:35:43;;;;;;;;;14.25;13.00;;;;;22.48;67.77;101365.09;5061287;28;53392;-53
2022/10/19 02:38:10;;;;;;;;;12.75;10.00;;;;;22.47;67.28;101358.91;5059840;28;46537;-54
2022/10/19 02:40:38;;;;;;;;;14.00;10.75;;;;;22.48;67.15;101362.44;5033345;28;45524;-53
2022/10/19 02:43:05;;;;;;;;;12.25;11.50;;;;;22.47;67.19;101358.91;5041335;28;45371;-54
2022/10/19 02:45:34;;;;;;;;;16.75;12.00;;;;;22.47;67.83;101355.38;5045267;28;49335;-53
2022/10/19 02:48:01;;;;;;;;;11.75;11.75;;;;;22.46;67.48;101354.50;5041064;28;45454;-54
2022/10/19 02:50:27;;;;;;;;;9.50;9.50;;;;;22.46;67.57;101348.31;5066168;28;45448;-54
2022/10/19 02:52:52;;;;;;;;;13.25;12.00;;;;;22.47;67.40;101334.09;5042143;28;56867;-55
2022/10/19 02:55:18;;;;;;;;;13.75;12.75;;;;;22.47;67.52;101339.41;5060762;28;48151;-55
2022/10/19 02:57:43;;;;;;;;;13.50;11.75;;;;;22.45;67.03;101327.94;5042046;28;45603;-55
2022/10/19 03:00:09;;;;;;;;;14.00;12.50;;;;;22.45;67.63;101336.81;5056651;28;45701;-55
2022/10/19 03:02:35;;;;;;;;;11.00;10.25;;;;;22.45;67.58;101327.94;5056364;27;45465;-55
2022/10/19 03:05:00;;;;;;;;;13.50;11.25;;;;;22.44;67.81;101332.41;5056440;28;63618;-54
2022/10/19 03:07:25;;;;;;;;;11.75;11.25;;;;;22.45;67.11;101333.28;5054985;28;68648;-55
2022/10/19 03:09:51;;;;;;;;;14.75;11.25;;;;;22.43;67.12;101330.66;5056558;28;63172;-55
2022/10/19 03:12:16;;;;;;;;;13.00;11.75;;;;;22.44;67.71;101321.75;5061199;28;45477;-55
2022/10/19 03:14:42;;;;;;;;;10.50;10.50;;;;;22.44;67.76;101321.75;5061676;28;47126;-54
2022/10/19 03:17:07;;;;;;;;;10.75;9.75;;;;;22.44;67.47;101316.44;5056178;28;70920;-55
2022/10/19 03:19:33;;;;;;;;;13.50;12.25;;;;;22.44;67.55;101313.78;5054424;28;62528;-55
2022/10/19 03:21:59;;;;;;;;;10.50;10.25;;;;;22.45;67.61;101309.34;5056910;28;45549;-54
2022/10/19 03:24:24;;;;;;;;;13.25;11.25;;;;;22.45;67.62;101314.66;5055530;28;55820;-55
2022/10/19 03:26:49;;;;;;;;;15.25;12.50;;;;;22.45;67.65;101307.53;5054698;28;63593;-54
2022/10/19 03:29:15;;;;;;;;;11.75;10.25;;;;;22.45;67.60;101302.22;5055617;28;45381;-55
2022/10/19 03:31:40;;;;;;;;;11.75;11.00;;;;;22.45;66.98;101302.22;5059455;28;45401;-54
2022/10/19 03:34:06;;;;;;;;;15.25;12.00;;;;;22.45;67.02;101301.34;5056195;28;61529;-53
2022/10/19 03:36:35;;;;;;;;;16.00;12.75;;;;;22.44;66.97;101308.47;5054637;28;64955;-54
2022/10/19 03:39:02;;;;;;;;;11.00;9.00;;;;;22.43;67.59;101304.06;5055993;28;45643;-55
2022/10/19 03:41:29;;;;;;;;;14.75;11.25;;;;;22.43;67.03;101301.41;5056506;28;45485;-55
2022/10/19 03:43:55;;;;;;;;;10.25;10.25;;;;;22.43;67.02;101298.75;5056045;28;45389;-55
2022/10/19 03:46:20;;;;;;;;;10.00;9.25;;;;;22.43;66.84;101295.22;5056853;28;45501;-55
2022/10/19 03:48:46;;;;;;;;;10.50;10.50;;;;;22.44;67.48;101294.28;5056586;28;45271;-55
2022/10/19 03:51:30;;;;;;;;;12.00;9.00;;;;;22.44;67.47;101286.31;5060370;28;57953;-53
2022/10/19 03:53:59;;;;;;;;;11.00;11.00;;;;;22.43;66.98;101282.78;5054691;27;46838;-54
2022/10/19 03:56:25;;;;;;;;;11.00;10.25;;;;;22.44;67.54;101287.19;5056932;28;45634;-54
2022/10/19 03:58:51;;;;;;;;;10.50;9.00;;;;;22.42;66.97;101286.38;5068954;28;45643;-54
2022/10/19 04:01:19;;;;;;;;;12.75;11.25;;;;;22.43;66.82;101285.44;5060397;28;45804;-55
2022/10/19 04:03:44;;;;;;;;;12.00;10.75;;;;;22.41;67.28;101287.25;5056389;28;46158;-54
2022/10/19 04:06:12;;;;;;;;;13.00;11.00;;;;;22.40;67.07;101285.53;5055798;28;45470;-54
2022/10/19 04:08:37;;;;;;;;;11.50;10.75;;;;;22.43;67.30;101292.56;5070448;28;45522;-52
2022/10/19 04:11:05;;;;;;;;;10.00;9.75;;;;;22.42;66.83;101290.81;5064044;28;45432;-53
2022/10/19 04:13:30;;;;;;;;;16.75;13.00;;;;;22.42;67.27;101285.50;5061486;28;47135;-53
2022/10/19 04:15:56;;;;;;;;;11.25;11.25;;;;;22.42;67.38;101285.50;5056914;28;45501;-53
2022/10/19 04:18:21;;;;;;;;;10.75;10.00;;;;;22.42;66.94;101285.50;5055242;28;63203;-52
2022/10/19 04:20:46;;;;;;;;;9.00;8.25;;;;;22.41;67.49;101289.91;5057769;28;45658;-54
2022/10/19 04:23:12;;;;;;;;;14.50;10.50;;;;;22.42;66.77;101285.50;5055021;28;65298;-52
2022/10/19 04:25:37;;;;;;;;;9.75;9.25;;;;;22.40;67.17;101288.19;5054054;28;62230;-53
2022/10/19 04:28:03;;;;;;;;;8.00;8.00;;;;;22.40;67.20;101282.88;5057984;27;54175;-52
2022/10/19 04:30:28;;;;;;;;;9.75;8.25;;;;;22.41;67.38;101283.72;5057295;28;45364;-53
2022/10/19 04:32:53;;;;;;;;;10.00;9.25;;;;;22.41;67.28;101287.25;5054711;28;61364;-52
2022/10/19 04:35:19;;;;;;;;;14.50;12.00;;;;;22.40;66.73;101279.34;5055502;28;71547;-52
2022/10/19 04:37:44;;;;;;;;;11.00;10.25;;;;;22.40;67.02;101284.66;5055672;28;51435;-53
2022/10/19 04:40:10;;;;;;;;;12.00;10.00;;;;;22.40;67.43;101285.53;5061560;28;45642;-53
2022/10/19 04:42:35;;;;;;;;;12.50;10.25;;;;;22.39;67.37;101283.78;5059514;28;46398;-53
2022/10/19 04:45:01;;;;;;;;;12.25;9.75;;;;;22.39;67.16;101282.91;5070763;28;45433;-54
2022/10/19 04:47:28;;;;;;;;;13.00;9.75;;;;;22.38;67.61;101279.38;5056619;28;45716;-54
2022/10/19 04:49:53;;;;;;;;;11.00;9.75;;;;;22.40;66.87;101276.66;5057172;27;45469;-53
2022/10/19 04:52:18;;;;;;;;;13.25;11.25;;;;;22.39;66.91;101275.81;5055025;28;68477;-54
2022/10/19 04:54:44;;;;;;;;;12.75;10.00;;;;;22.39;66.88;101266.97;5057171;28;68582;-52
2022/10/19 04:57:10;;;;;;;;;11.50;10.00;;;;;22.39;67.53;101264.28;5039482;28;45429;-52
2022/10/19 04:59:35;;;;;;;;;9.00;9.00;;;;;22.39;67.40;101249.22;5054488;28;66949;-53
2022/10/19 05:02:00;;;;;;;;;10.25;10.00;;;;;22.39;67.00;101243.88;5056972;27;68410;-52
2022/10/19 05:04:26;;;;;;;;;11.25;11.00;;;;;22.39;67.09;101238.56;5057580;28;66929;-54
2022/10/19 05:06:51;;;;;;;;;9.50;9.50;;;;;22.39;67.03;101235.91;5055989;28;50680;-53
2022/10/19 05:09:17;;;;;;;;;12.00;8.75;;;;;22.40;67.03;101234.13;5061081;28;70655;-52
2022/10/19 05:11:42;;;;;;;;;10.25;8.50;;;;;22.39;66.93;101238.56;5059618;28;45437;-52
2022/10/19 05:14:07;;;;;;;;;12.75;10.00;;;;;22.38;67.39;101226.19;5056093;28;45501;-53
2022/10/19 05:16:33;;;;;;;;;9.25;9.25;;;;;22.38;66.92;101231.50;5056771;28;46805;-54
2022/10/19 05:18:58;;;;;;;;;11.00;10.25;;;;;22.38;67.35;101226.19;5054727;28;66751;-53
2022/10/19 05:21:25;;;;;;;;;9.00;8.00;;;;;22.39;67.13;101235.03;5064853;28;47008;-52
2022/10/19 05:23:52;;;;;;;;;8.75;8.50;;;;;22.40;67.23;101239.44;5055799;28;45475;-54
2022/10/19 05:26:18;;;;;;;;;10.25;10.00;;;;;22.39;67.39;101227.94;5059211;28;45475;-52
2022/10/19 05:28:50;;;;;;;;;14.25;10.25;;;;;22.40;67.53;101232.31;5062784;28;45564;-53
2022/10/19 05:31:17;;;;;;;;;8.75;8.75;;;;;22.42;67.43;101234.97;5059701;28;45485;-54
2022/10/19 05:33:43;;;;;;;;;12.25;10.75;;;;;22.41;67.22;101223.44;5057121;28;48190;-52
2022/10/19 05:36:24;;;;;;;;;10.25;9.25;;;;;22.41;67.55;101228.75;5051965;28;61717;-54
2022/10/19 05:38:51;;;;;;;;;11.75;11.75;;;;;22.41;67.13;101211.91;5062330;28;45410;-53
2022/10/19 05:41:17;;;;;;;;;10.25;8.25;;;;;22.42;66.82;101214.56;5045410;28;46001;-54
2022/10/19 05:43:42;;;;;;;;;12.50;10.00;;;;;22.43;67.36;101208.31;5057020;28;45554;-54
2022/10/19 05:46:12;;;;;;;;;8.50;8.00;;;;;22.43;67.47;101205.66;5059816;28;45256;-54
2022/10/19 05:48:38;;;;;;;;;8.75;8.25;;;;;22.42;67.46;101193.28;5054201;28;45525;-52
2022/10/19 05:51:04;;;;;;;;;11.50;9.75;;;;;22.42;66.98;101201.25;5066606;28;46225;-52
2022/10/19 05:53:29;;;;;;;;;8.25;8.00;;;;;22.44;66.97;101198.53;5041559;28;45478;-50
2022/10/19 05:55:55;;;;;;;;;11.50;9.50;;;;;22.46;66.75;101202.00;5060806;28;66348;-51
2022/10/19 05:58:20;;;;;;;;;15.00;12.25;;;;;22.47;66.71;101203.75;5057838;28;68641;-54
2022/10/19 06:00:53;;;;;;;;;7.00;7.00;;;;;22.48;67.44;101206.34;5056911;28;45971;-54
2022/10/19 06:03:19;;;;;;;;;9.50;7.50;;;;;22.49;67.37;101200.09;5057848;28;45248;-54
2022/10/19 06:05:44;;;;;;;;;13.00;10.25;;;;;22.51;67.20;101211.59;5058269;27;45471;-52
2022/10/19 06:08:09;;;;;;;;;9.00;9.00;;;;;22.52;67.36;101212.47;5041423;28;45731;-52
2022/10/19 06:10:35;;;;;;;;;18.00;10.00;;;;;22.54;66.88;101215.94;5059840;28;45501;-54
2022/10/19 06:13:00;;;;;;;;;11.00;8.50;;;;;22.54;67.29;101206.16;5060485;28;68522;-52
2022/10/19 06:15:25;;;;;;;;;11.75;10.50;;;;;22.56;67.33;101214.09;5070673;28;56384;-54
2022/10/19 06:17:51;;;;;;;;;9.75;9.00;;;;;22.56;67.15;101209.63;5057730;28;58455;-53
2022/10/19 06:20:16;;;;;;;;;9.25;8.25;;;;;22.58;66.89;101209.56;5056904;28;66830;-54
2022/10/19 06:22:42;;;;;;;;;9.00;8.50;;;;;22.58;66.95;101201.59;5058476;28;69369;-53
2022/10/19 06:25:07;;;;;;;;;9.50;9.50;;;;;22.58;67.14;101205.13;5060870;28;60732;-52
2022/10/19 06:27:33;;;;;;;;;9.25;9.00;;;;;22.60;66.63;101206.91;5060411;28;45371;-51
2022/10/19 06:29:58;;;;;;;;;8.75;7.00;;;;;22.61;67.27;101203.31;5057398;28;45442;-53
2022/10/19 06:32:24;;;;;;;;;11.50;9.50;;;;;22.61;66.56;101200.66;5062772;27;45465;-52
2022/10/19 06:34:49;;;;;;;;;12.25;10.00;;;;;22.59;67.08;101208.69;5060752;28;45456;-53
2022/10/19 06:37:14;;;;;;;;;8.75;8.75;;;;;22.59;66.63;101211.34;5061655;28;63441;-50
2022/10/19 06:39:40;;;;;;;;;10.25;9.00;;;;;22.60;66.78;101207.75;5063977;28;64516;-50
2022/10/19 06:42:05;;;;;;;;;9.25;9.00;;;;;22.60;66.60;101194.47;5057348;28;52166;-52
2022/10/19 06:44:31;;;;;;;;;9.50;9.00;;;;;22.61;67.25;101200.66;5066140;28;59354;-53
2022/10/19 06:46:56;;;;;;;;;11.00;11.00;;;;;22.62;66.58;101194.41;5039592;28;67368;-52
2022/10/19 06:49:21;;;;;;;;;10.75;9.00;;;;;22.63;67.00;101202.31;5056832;28;45612;-53
2022/10/19 06:51:47;;;;;;;;;11.25;9.00;;;;;22.63;66.63;101202.31;5056910;28;45521;-51
2022/10/19 06:54:12;;;;;;;;;16.75;10.50;;;;;22.64;66.69;101198.75;5055771;28;69357;-53
2022/10/19 06:56:37;;;;;;;;;9.00;9.00;;;;;22.65;66.56;101197.81;5064048;28;61724;-48
2022/10/19 06:59:03;;;;;;;;;11.25;9.25;;;;;22.64;66.47;101200.53;5054507;28;71302;-51
2022/10/19 07:01:29;;;;;;;;;8.50;8.50;;;;;22.65;67.08;101204.94;5068475;28;45607;-52
2022/10/19 07:03:54;;;;;;;;;11.00;10.00;;;;;22.66;67.06;101204.88;5057326;27;53428;-53
2022/10/19 07:06:20;;;;;;;;;9.50;9.25;;;;;22.65;66.49;101191.63;5057943;28;46317;-53
2022/10/19 07:08:45;;;;;;;;;10.25;8.25;;;;;22.65;66.54;101192.50;5065063;28;65637;-53
2022/10/19 07:11:16;;;;;;;;;10.00;9.00;;;;;22.65;66.46;101191.63;5058590;28;45538;-54
2022/10/19 07:13:41;;;;;;;;;11.25;10.50;;;;;22.65;67.00;101186.31;5059263;28;45458;-51
2022/10/19 07:16:12;;;;;;;;;10.00;9.00;;;;;22.66;66.40;101186.25;5058075;28;73121;-53
2022/10/19 07:18:38;;;;;;;;;12.75;10.00;;;;;22.66;66.84;101186.25;5043063;28;46562;-53
2022/10/19 07:21:06;;;;;;;;;11.00;10.75;;;;;22.68;66.46;101186.22;5059882;28;45532;-53
2022/10/19 07:23:32;;;;;;;;;11.25;10.00;;;;;22.68;66.50;101173.78;5066616;28;45314;-51
2022/10/19 07:26:02;;;;;;;;;11.75;9.75;;;;;22.69;67.03;101169.34;5063293;28;45618;-51
2022/10/19 07:28:28;;;;;;;;;8.75;8.00;;;;;22.70;66.55;101179.06;5057244;28;45472;-54
2022/10/19 07:30:53;;;;;;;;;11.00;11.00;;;;;22.69;66.74;101182.63;5070583;28;45402;-48
2022/10/19 07:33:19;;;;;;;;;11.00;9.00;;;;;22.70;66.39;101195.03;5060963;28;45602;-52
2022/10/19 07:35:44;;;;;;;;;12.50;11.50;;;;;22.70;66.25;101187.03;5071056;27;45519;-50
2022/10/19 07:38:10;;;;;;;;;10.25;10.00;;;;;22.70;66.72;101187.03;5065836;28;46609;-53
2022/10/19 07:40:35;;;;;;;;;10.25;7.75;;;;;22.72;66.60;101195.81;5043053;28;46770;-51
2022/10/19 07:43:01;;;;;;;;;8.50;8.50;;;;;22.72;66.30;101193.16;5066698;28;70073;-52
2022/10/19 07:45:26;;;;;;;;;8.75;7.75;;;;;22.69;66.46;101187.97;5073399;28;45480;-51
2022/10/19 07:47:51;;;;;;;;;11.50;9.00;;;;;22.69;66.43;101180.84;5063012;28;74570;-53
2022/10/19 07:50:17;;;;;;;;;12.00;12.00;;;;;22.68;66.27;101189.75;5066254;28;56413;-53
2022/10/19 07:52:42;;;;;;;;;11.25;10.00;;;;;22.68;66.20;101183.56;5058934;28;62332;-52
2022/10/19 07:55:08;;;;;;;;;8.75;8.50;;;;;22.67;66.36;101179.13;5061698;28;59519;-52
2022/10/19 07:57:33;;;;;;;;;16.00;12.00;;;;;22.65;66.52;101186.31;5061915;28;46801;-53
2022/10/19 07:59:58;;;;;;;;;14.00;9.75;;;;;22.64;65.80;101187.22;5064972;28;45885;-47
2022/10/19 08:02:24;;;;;;;;;9.00;9.00;;;;;22.64;66.15;101181.91;5059821;28;45389;-53
2022/10/19 08:04:50;;;;;;;;;6.00;6.00;;;;;22.64;66.16;101180.13;5059534;28;48772;-52
2022/10/19 08:07:15;;;;;;;;;12.75;11.00;;;;;22.63;66.45;101173.06;5062973;28;51845;-55
2022/10/19 08:09:40;;;;;;;;;12.75;10.00;;;;;22.64;66.27;101169.47;5059193;28;60734;-51
2022/10/19 08:12:06;;;;;;;;;12.25;10.00;;;;;22.64;66.47;101184.56;5063282;28;45710;-52
2022/10/19 08:14:31;;;;;;;;;13.50;11.75;;;;;22.65;66.45;101187.16;5069776;27;45620;-55
2022/10/19 08:16:56;;;;;;;;;12.25;11.75;;;;;22.65;66.44;101178.31;5058824;28;45858;-52
2022/10/19 08:19:23;;;;;;;;;13.50;12.00;;;;;22.68;65.33;101186.22;5062372;28;61430;-51
2022/10/19 08:21:48;;;;;;;;;11.75;9.75;;;;;22.66;64.84;101177.41;5058319;28;46208;-50
2022/10/19 08:24:14;;;;;;;;;11.25;9.50;;;;;22.60;65.37;101178.50;5058862;28;45623;-47
2022/10/19 08:26:40;;;;;;;;;13.25;12.00;;;;;22.58;64.90;101175.84;5067569;28;45547;-50
2022/10/19 08:29:16;;;;;;;;;11.00;9.75;;;;;22.55;64.68;101165.34;5068171;28;63473;-47
2022/10/19 08:31:42;;;;;;;;;15.50;13.75;;;;;22.53;63.81;101172.50;5060774;28;45541;-48
2022/10/19 08:34:07;;;;;;;;;11.00;9.00;;;;;22.46;63.58;101160.31;5064642;28;45629;-50
2022/10/19 08:36:34;;;;;;;;;12.25;10.25;;;;;22.45;64.39;101171.88;5053287;28;47260;-51
2022/10/19 08:39:00;;;;;;;;;11.50;11.50;;;;;22.44;63.79;101164.84;5065236;28;45442;-50
2022/10/19 08:41:38;;;;;;;;;11.75;10.25;;;;;22.45;63.23;101169.22;5037885;28;45563;-50
2022/10/19 08:44:10;;;;;;;;;10.50;9.25;;;;;22.36;62.77;101158.03;5062054;27;45524;-51
2022/10/19 08:46:54;;;;;;;;;11.00;10.75;;;;;22.25;62.51;101164.56;5051160;28;45813;-51
2022/10/19 08:49:21;;;;;;;;;12.50;12.50;;;;;22.21;62.77;101159.38;5063846;28;45393;-52
2022/10/19 08:51:50;;;;;;;;;13.25;12.25;;;;;22.19;62.88;101155.91;5066978;28;45288;-50
2022/10/19 08:54:16;;;;;;;;;12.50;10.25;;;;;22.18;63.26;101160.38;5053927;28;47011;-49
2022/10/19 08:57:07;;;;;;;;;10.25;9.50;;;;;22.20;63.57;101155.84;5079698;27;45876;-50
2022/10/19 08:59:55;;;;;;;;;13.25;12.75;;;;;22.20;63.16;101160.31;5060891;28;45227;-48
2022/10/19 09:02:59;;;;;;;;;10.50;10.50;;;;;22.20;62.85;101162.97;5054413;28;45393;-48
2022/10/19 09:05:56;;;;;;;;;12.00;12.00;;;;;22.22;62.14;101158.47;5069199;28;45624;-50
2022/10/19 09:08:23;;;;;;;;;10.00;10.00;;;;;22.20;62.49;101150.53;5066892;28;48496;-53
2022/10/19 09:10:50;;;;;;;;;13.00;11.00;;;;;22.16;61.77;101158.69;5061295;28;45633;-48
2022/10/19 09:13:42;;;;;;;;;11.50;10.75;;;;;22.10;61.74;101145.56;5075489;28;45431;-49
2022/10/19 09:16:11;;;;;;;;;9.75;9.75;;;;;22.07;62.21;101143.91;5068734;28;45603;-51
2022/10/19 09:18:36;;;;;;;;;9.75;6.00;;;;;22.06;61.90;101135.91;5071205;28;45497;-52
2022/10/19 09:21:05;;;;;;;;;11.00;11.00;;;;;22.01;61.92;101133.41;5068791;28;68470;-53
2022/10/19 09:23:48;;;;;;;;;11.00;10.50;;;;;21.96;62.38;101130.88;5049904;28;45537;-57
2022/10/19 09:26:15;;;;;;;;;11.50;10.00;;;;;21.99;62.64;101129.94;5070609;28;45461;-52
2022/10/19 09:29:04;;;;;;;;;14.25;12.00;;;;;22.04;62.03;101127.13;5070275;28;47537;-52
2022/10/19 09:31:35;;;;;;;;;11.50;10.50;;;;;22.02;62.12;101127.19;5074221;28;45492;-53
2022/10/19 09:34:04;;;;;;;;;9.50;8.00;;;;;22.01;62.38;101122.78;5065540;28;45342;-54
2022/10/19 09:36:54;;;;;;;;;10.75;10.00;;;;;22.01;62.26;101123.66;5076549;28;45346;-50
2022/10/19 09:39:20;;;;;;;;;14.00;10.25;;;;;22.03;62.13;101128.91;5075124;27;45397;-54
2022/10/19 09:41:54;;;;;;;;;13.25;12.00;;;;;22.06;62.13;101128.81;5073985;27;45452;-54
2022/10/19 09:44:20;;;;;;;;;11.50;11.50;;;;;22.08;62.50;101126.16;5065285;28;45434;-53
2022/10/19 09:46:51;;;;;;;;;12.25;12.00;;;;;22.12;61.88;101127.78;5065481;28;45416;-52
2022/10/19 09:49:40;;;;;;;;;10.50;9.50;;;;;22.12;61.73;101130.44;5066218;28;46155;-52
2022/10/19 09:52:12;;;;;;;;;13.25;10.50;;;;;22.14;62.05;101125.94;5058453;28;45461;-51
2022/10/19 09:54:38;;;;;;;;;13.00;10.75;;;;;22.17;61.92;101120.53;5043460;28;45439;-52
2022/10/19 09:57:04;;;;;;;;;13.25;12.50;;;;;22.18;61.52;101117.81;5066229;28;45298;-52
2022/10/19 09:59:32;;;;;;;;;12.25;11.50;;;;;22.20;62.16;101110.66;5074143;27;45452;-53
2022/10/19 10:02:06;;;;;;;;;15.00;9.25;;;;;22.22;61.76;101121.25;5062735;27;45384;-53
2022/10/19 10:04:35;;;;;;;;;9.50;8.00;;;;;22.20;61.21;101110.66;5061234;28;45303;-51
2022/10/19 10:07:00;;;;;;;;;13.25;11.75;;;;;22.20;62.08;101108.00;5074682;27;45275;-49
2022/10/19 10:09:27;;;;;;;;;9.25;9.00;;;;;22.24;61.98;101109.66;5071794;27;60672;-53
2022/10/19 10:11:53;;;;;;;;;11.25;10.25;;;;;22.25;62.14;101098.09;5068458;28;45409;-51
2022/10/19 10:14:20;;;;;;;;;11.75;9.00;;;;;22.29;61.52;101101.50;5051503;28;45487;-53
2022/10/19 10:16:45;;;;;;;;;9.50;8.00;;;;;22.32;62.46;101092.56;5066586;28;45496;-51
2022/10/19 10:19:11;;;;;;;;;15.75;13.75;;;;;22.35;62.06;101098.66;5064462;27;65828;-53
2022/10/19 10:21:54;;;;;;;;;15.00;11.00;;;;;22.36;61.04;101097.72;5072147;28;46150;-49
2022/10/19 10:24:21;;;;;;;;;12.50;11.00;;;;;22.36;61.45;101100.38;5069631;28;45370;-52
2022/10/19 10:26:48;;;;;;;;;11.25;11.25;;;;;22.34;61.60;101088.06;5041900;28;45620;-51
2022/10/19 10:29:20;;;;;;;;;14.25;12.25;;;;;22.35;61.63;101088.00;5065180;28;45452;-48
2022/10/19 10:31:47;;;;;;;;;17.75;14.50;;;;;22.38;61.35;101079.06;5078171;28;45408;-51
2022/10/19 10:34:17;;;;;;;;;8.00;8.00;;;;;22.41;62.13;101070.97;5065559;28;45380;-48
2022/10/19 10:36:43;;;;;;;;;15.75;14.25;;;;;22.44;60.75;101069.09;5053654;28;46310;-50
2022/10/19 10:39:11;;;;;;;;;16.00;13.00;;;;;22.46;61.26;101067.22;5075657;28;50896;-52
2022/10/19 10:41:38;;;;;;;;;12.00;11.00;;;;;22.47;61.11;101062.78;5064320;28;45320;-53
2022/10/19 10:44:06;;;;;;;;;14.75;10.50;;;;;22.47;61.32;101066.31;5048931;28;45265;-53
2022/10/19 10:46:33;;;;;;;;;11.50;10.25;;;;;22.50;61.44;101066.22;5075287;28;45453;-53
2022/10/19 10:49:02;;;;;;;;;10.50;10.00;;;;;22.52;61.29;101063.50;5067878;28;47841;-50
2022/10/19 10:51:32;;;;;;;;;16.50;13.00;;;;;22.54;60.78;101062.50;5059610;28;45273;-47
2022/10/19 10:54:20;;;;;;;;;11.25;10.50;;;;;22.57;61.09;101058.88;5078214;28;45311;-48
2022/10/19 10:57:14;;;;;;;;;12.00;11.50;;;;;22.59;60.84;101049.06;5070494;27;45370;-48
2022/10/19 11:00:11;;;;;;;;;13.25;10.25;;;;;22.64;61.41;101055.06;5065407;28;46360;-51
2022/10/19 11:02:46;;;;;;;;;14.25;11.00;;;;;22.65;61.09;101051.47;5078440;27;45294;-52
2022/10/19 11:05:27;;;;;;;;;12.75;10.00;;;;;22.66;60.67;101049.69;5072867;28;45460;-53
2022/10/19 11:08:04;;;;;;;;;14.75;12.25;;;;;22.69;61.19;101039.81;5079493;28;45420;-53
2022/10/19 11:10:31;;;;;;;;;11.25;11.00;;;;;22.71;61.10;101031.78;5077481;27;45793;-51
2022/10/19 11:13:20;;;;;;;;;11.25;10.50;;;;;22.76;60.95;101020.06;5066098;28;45322;-53
2022/10/19 11:15:54;;;;;;;;;11.75;10.25;;;;;22.77;60.09;101027.09;5073755;28;45483;-53
2022/10/19 11:18:23;;;;;;;;;11.25;10.00;;;;;22.79;60.45;101021.72;5075360;28;45490;-52